sensor_id;sensor_type;location;lat;lon;timestamp;pressure;altitude;pressure_sealevel;temperature;humidity
75013;BME280;63567;49.956;20.130;2023-04-03T00:01:18;97311.69;;;0.53;94.02
75013;BME280;63567;49.956;20.130;2023-04-03T00:03:44;97309.91;;;0.54;93.99
75013;BME280;63567;49.956;20.130;2023-04-03T00:06:10;97304.16;;;0.50;94.43
75013;BME280;63567;49.956;20.130;2023-04-03T00:08:37;97314.88;;;0.46;94.88
75013;BME280;63567;49.956;20.130;2023-04-03T00:11:04;97315.22;;;0.52;94.96
75013;BME280;63567;49.956;20.130;2023-04-03T00:13:30;97318.13;;;0.48;94.38
75013;BME280;63567;49.956;20.130;2023-04-03T00:15:55;97318.75;;;0.51;94.26
75013;BME280;63567;49.956;20.130;2023-04-03T00:18:21;97326.16;;;0.45;94.41
75013;BME280;63567;49.956;20.130;2023-04-03T00:20:47;97310.16;;;0.39;93.93
75013;BME280;63567;49.956;20.130;2023-04-03T00:23:12;97312.03;;;0.37;94.41
75013;BME280;63567;49.956;20.130;2023-04-03T00:25:38;97324.63;;;0.31;94.61
75013;BME280;63567;49.956;20.130;2023-04-03T00:28:04;97322.88;;;0.31;94.74
75013;BME280;63567;49.956;20.130;2023-04-03T00:30:30;97314.03;;;0.34;94.29
75013;BME280;63567;49.956;20.130;2023-04-03T00:32:56;97315.69;;;0.35;94.90
75013;BME280;63567;49.956;20.130;2023-04-03T00:35:21;97314.13;;;0.32;94.21
75013;BME280;63567;49.956;20.130;2023-04-03T00:37:48;97321.00;;;0.33;94.58
75013;BME280;63567;49.956;20.130;2023-04-03T00:40:15;97335.00;;;0.31;94.68
75013;BME280;63567;49.956;20.130;2023-04-03T00:42:42;97328.25;;;0.28;94.64
75013;BME280;63567;49.956;20.130;2023-04-03T00:47:36;97328.63;;;0.24;95.21
75013;BME280;63567;49.956;20.130;2023-04-03T00:50:04;97331.69;;;0.17;95.42
75013;BME280;63567;49.956;20.130;2023-04-03T00:52:30;97334.16;;;0.19;95.58
75013;BME280;63567;49.956;20.130;2023-04-03T00:55:02;97327.34;;;0.18;95.78
75013;BME280;63567;49.956;20.130;2023-04-03T00:57:29;97331.81;;;0.16;95.95
75013;BME280;63567;49.956;20.130;2023-04-03T00:59:59;97332.97;;;0.12;95.81
75013;BME280;63567;49.956;20.130;2023-04-03T01:02:26;97340.38;;;0.05;96.62
75013;BME280;63567;49.956;20.130;2023-04-03T01:04:51;97340.72;;;0.01;95.92
75013;BME280;63567;49.956;20.130;2023-04-03T01:07:21;97343.19;;;0.02;96.20
75013;BME280;63567;49.956;20.130;2023-04-03T01:09:49;97335.66;;;-0.01;96.24
75013;BME280;63567;49.956;20.130;2023-04-03T01:12:23;97346.00;;;-0.01;96.07
75013;BME280;63567;49.956;20.130;2023-04-03T01:14:51;97348.84;;;-0.04;96.58
75013;BME280;63567;49.956;20.130;2023-04-03T01:17:29;97346.97;;;-0.02;96.29
75013;BME280;63567;49.956;20.130;2023-04-03T01:23:18;97350.22;;;-0.11;97.04
75013;BME280;63567;49.956;20.130;2023-04-03T01:25:51;97348.06;;;-0.17;96.58
75013;BME280;63567;49.956;20.130;2023-04-03T01:28:25;97358.44;;;-0.17;97.09
75013;BME280;63567;49.956;20.130;2023-04-03T01:33:39;97364.66;;;-0.20;97.41
75013;BME280;63567;49.956;20.130;2023-04-03T01:36:05;97362.22;;;-0.22;97.80
75013;BME280;63567;49.956;20.130;2023-04-03T01:38:31;97361.03;;;-0.17;98.30
75013;BME280;63567;49.956;20.130;2023-04-03T01:40:56;97358.44;;;-0.17;97.37
75013;BME280;63567;49.956;20.130;2023-04-03T01:43:22;97364.66;;;-0.20;97.13
75013;BME280;63567;49.956;20.130;2023-04-03T01:45:47;97365.50;;;-0.19;97.85
75013;BME280;63567;49.956;20.130;2023-04-03T01:48:14;97355.97;;;-0.19;97.43
75013;BME280;63567;49.956;20.130;2023-04-03T01:50:40;97371.38;;;-0.17;97.33
75013;BME280;63567;49.956;20.130;2023-04-03T01:53:06;97364.47;;;-0.17;97.61
75013;BME280;63567;49.956;20.130;2023-04-03T01:55:31;97368.22;;;-0.21;97.27
75013;BME280;63567;49.956;20.130;2023-04-03T01:57:57;97363.94;;;-0.22;97.21
75013;BME280;63567;49.956;20.130;2023-04-03T02:00:22;97364.91;;;-0.23;97.18
75013;BME280;63567;49.956;20.130;2023-04-03T02:02:47;97367.50;;;-0.23;97.14
75013;BME280;63567;49.956;20.130;2023-04-03T02:05:13;97368.41;;;-0.24;97.66
75013;BME280;63567;49.956;20.130;2023-04-03T02:07:38;97375.59;;;-0.28;97.66
75013;BME280;63567;49.956;20.130;2023-04-03T02:10:04;97371.84;;;-0.24;97.66
75013;BME280;63567;49.956;20.130;2023-04-03T02:12:29;97368.53;;;-0.26;97.67
75013;BME280;63567;49.956;20.130;2023-04-03T02:14:55;97365.59;;;-0.32;97.88
75013;BME280;63567;49.956;20.130;2023-04-03T02:17:20;97371.47;;;-0.30;97.74
75013;BME280;63567;49.956;20.130;2023-04-03T02:19:45;97371.13;;;-0.26;97.44
75013;BME280;63567;49.956;20.130;2023-04-03T02:22:11;97375.81;;;-0.31;97.41
75013;BME280;63567;49.956;20.130;2023-04-03T02:24:36;97381.94;;;-0.32;96.94
75013;BME280;63567;49.956;20.130;2023-04-03T02:27:04;97380.97;;;-0.31;97.50
75013;BME280;63567;49.956;20.130;2023-04-03T02:29:29;97380.97;;;-0.31;97.52
75013;BME280;63567;49.956;20.130;2023-04-03T02:31:55;97372.41;;;-0.31;97.16
75013;BME280;63567;49.956;20.130;2023-04-03T02:34:20;97379.44;;;-0.33;97.12
75013;BME280;63567;49.956;20.130;2023-04-03T02:36:46;97381.94;;;-0.32;97.64
75013;BME280;63567;49.956;20.130;2023-04-03T02:39:11;97379.44;;;-0.33;97.56
75013;BME280;63567;49.956;20.130;2023-04-03T02:41:36;97371.78;;;-0.35;97.20
75013;BME280;63567;49.956;20.130;2023-04-03T02:44:03;97375.41;;;-0.37;97.59
75013;BME280;63567;49.956;20.130;2023-04-03T02:46:29;97381.31;;;-0.35;98.07
75013;BME280;63567;49.956;20.130;2023-04-03T02:48:54;97382.28;;;-0.36;97.84
75013;BME280;63567;49.956;20.130;2023-04-03T02:51:20;97376.97;;;-0.35;97.96
75013;BME280;63567;49.956;20.130;2023-04-03T02:53:45;97382.97;;;-0.34;98.33
75013;BME280;63567;49.956;20.130;2023-04-03T02:56:11;97392.63;;;-0.36;98.16
75013;BME280;63567;49.956;20.130;2023-04-03T02:58:36;97391.78;;;-0.37;98.17
75013;BME280;63567;49.956;20.130;2023-04-03T03:01:02;97394.81;;;-0.43;97.93
75013;BME280;63567;49.956;20.130;2023-04-03T03:03:27;97391.38;;;-0.44;97.87
75013;BME280;63567;49.956;20.130;2023-04-03T03:06:07;97389.66;;;-0.43;97.11
75013;BME280;63567;49.956;20.130;2023-04-03T03:08:33;97390.66;;;-0.46;97.76
75013;BME280;63567;49.956;20.130;2023-04-03T03:10:59;97387.50;;;-0.49;97.37
75013;BME280;63567;49.956;20.130;2023-04-03T03:13:24;97395.97;;;-0.47;97.60
75013;BME280;63567;49.956;20.130;2023-04-03T03:15:50;97388.88;;;-0.56;97.82
75013;BME280;63567;49.956;20.130;2023-04-03T03:18:15;97397.34;;;-0.54;97.85
75013;BME280;63567;49.956;20.130;2023-04-03T03:20:41;97401.91;;;-0.58;98.03
75013;BME280;63567;49.956;20.130;2023-04-03T03:23:06;97392.38;;;-0.57;98.16
75013;BME280;63567;49.956;20.130;2023-04-03T03:25:31;97406.03;;;-0.55;97.12
75013;BME280;63567;49.956;20.130;2023-04-03T03:27:57;97403.47;;;-0.55;97.44
75013;BME280;63567;49.956;20.130;2023-04-03T03:30:22;97405.22;;;-0.56;97.43
75013;BME280;63567;49.956;20.130;2023-04-03T03:32:47;97407.69;;;-0.54;97.03
75013;BME280;63567;49.956;20.130;2023-04-03T03:35:13;97408.53;;;-0.54;97.58
75013;BME280;63567;49.956;20.130;2023-04-03T03:37:38;97410.06;;;-0.51;97.53
75013;BME280;63567;49.956;20.130;2023-04-03T03:40:04;97408.09;;;-0.48;97.48
75013;BME280;63567;49.956;20.130;2023-04-03T03:42:30;97409.25;;;-0.52;97.68
75013;BME280;63567;49.956;20.130;2023-04-03T03:44:55;97415.44;;;-0.54;97.95
75013;BME280;63567;49.956;20.130;2023-04-03T03:47:21;97411.00;;;-0.52;97.01
75013;BME280;63567;49.956;20.130;2023-04-03T03:49:46;97399.91;;;-0.54;97.42
75013;BME280;63567;49.956;20.130;2023-04-03T03:52:11;97412.66;;;-0.51;97.50
75013;BME280;63567;49.956;20.130;2023-04-03T03:54:37;97412.84;;;-0.54;96.93
75013;BME280;63567;49.956;20.130;2023-04-03T03:57:03;97418.03;;;-0.54;96.81
75013;BME280;63567;49.956;20.130;2023-04-03T03:59:28;97418.88;;;-0.54;97.37
75013;BME280;63567;49.956;20.130;2023-04-03T04:01:54;97417.00;;;-0.52;96.90
75013;BME280;63567;49.956;20.130;2023-04-03T04:04:20;97430.28;;;-0.56;97.01
75013;BME280;63567;49.956;20.130;2023-04-03T04:06:45;97424.25;;;-0.57;97.30
75013;BME280;63567;49.956;20.130;2023-04-03T04:09:11;97423.53;;;-0.59;96.92
75013;BME280;63567;49.956;20.130;2023-04-03T04:11:36;97419.09;;;-0.57;97.20
75013;BME280;63567;49.956;20.130;2023-04-03T04:14:01;97427.28;;;-0.63;97.45
75013;BME280;63567;49.956;20.130;2023-04-03T04:16:27;97429.03;;;-0.64;97.06
75013;BME280;63567;49.956;20.130;2023-04-03T04:18:52;97430.81;;;-0.64;97.28
75013;BME280;63567;49.956;20.130;2023-04-03T04:21:17;97431.84;;;-0.67;97.07
75013;BME280;63567;49.956;20.130;2023-04-03T04:23:43;97427.41;;;-0.65;97.34
75013;BME280;63567;49.956;20.130;2023-04-03T04:26:08;97436.81;;;-0.64;97.32
75013;BME280;63567;49.956;20.130;2023-04-03T04:28:33;97425.88;;;-0.67;97.69
75013;BME280;63567;49.956;20.130;2023-04-03T04:30:59;97429.59;;;-0.71;96.95
75013;BME280;63567;49.956;20.130;2023-04-03T04:33:24;97431.13;;;-0.69;96.98
75013;BME280;63567;49.956;20.130;2023-04-03T04:35:50;97430.09;;;-0.66;97.38
75013;BME280;63567;49.956;20.130;2023-04-03T04:38:16;97433.09;;;-0.72;97.17
75013;BME280;63567;49.956;20.130;2023-04-03T04:40:42;97438.56;;;-0.64;97.20
75013;BME280;63567;49.956;20.130;2023-04-03T04:43:07;97443.97;;;-0.67;97.06
75013;BME280;63567;49.956;20.130;2023-04-03T04:45:32;97438.56;;;-0.64;97.52
75013;BME280;63567;49.956;20.130;2023-04-03T04:47:58;97441.25;;;-0.66;97.01
75013;BME280;63567;49.956;20.130;2023-04-03T04:50:23;97454.09;;;-0.64;97.22
75013;BME280;63567;49.956;20.130;2023-04-03T04:52:48;97451.94;;;-0.70;97.11
75013;BME280;63567;49.956;20.130;2023-04-03T04:55:14;97453.06;;;-0.74;96.91
75013;BME280;63567;49.956;20.130;2023-04-03T04:57:39;97454.03;;;-0.75;96.98
75013;BME280;63567;49.956;20.130;2023-04-03T05:00:05;97459.28;;;-0.77;96.75
75013;BME280;63567;49.956;20.130;2023-04-03T05:02:31;97452.47;;;-0.78;97.02
75013;BME280;63567;49.956;20.130;2023-04-03T05:04:56;97458.25;;;-0.74;97.41
75013;BME280;63567;49.956;20.130;2023-04-03T05:07:22;97458.25;;;-0.74;96.77
75013;BME280;63567;49.956;20.130;2023-04-03T05:09:47;97466.00;;;-0.74;96.43
75013;BME280;63567;49.956;20.130;2023-04-03T05:12:13;97469.88;;;-0.80;97.04
75013;BME280;63567;49.956;20.130;2023-04-03T05:14:38;97466.75;;;-0.85;95.98
75013;BME280;63567;49.956;20.130;2023-04-03T05:17:04;97470.47;;;-0.89;96.97
75013;BME280;63567;49.956;20.130;2023-04-03T05:19:29;97474.50;;;-0.85;96.78
75013;BME280;63567;49.956;20.130;2023-04-03T05:21:54;97472.97;;;-0.88;97.00
75013;BME280;63567;49.956;20.130;2023-04-03T05:24:20;97475.22;;;-0.83;96.91
75013;BME280;63567;49.956;20.130;2023-04-03T05:26:45;97478.75;;;-0.84;96.83
75013;BME280;63567;49.956;20.130;2023-04-03T05:29:11;97469.75;;;-0.91;97.12
75013;BME280;63567;49.956;20.130;2023-04-03T05:31:36;97475.97;;;-0.94;96.89
75013;BME280;63567;49.956;20.130;2023-04-03T05:34:02;97487.13;;;-0.93;96.99
75013;BME280;63567;49.956;20.130;2023-04-03T05:36:27;97486.53;;;-0.97;96.34
75013;BME280;63567;49.956;20.130;2023-04-03T05:38:53;97493.47;;;-0.97;96.57
75013;BME280;63567;49.956;20.130;2023-04-03T05:41:18;97494.19;;;-0.95;96.20
75013;BME280;63567;49.956;20.130;2023-04-03T05:43:46;97488.91;;;-0.94;96.60
75013;BME280;63567;49.956;20.130;2023-04-03T05:46:12;97486.84;;;-0.89;96.27
75013;BME280;63567;49.956;20.130;2023-04-03T05:48:38;97496.13;;;-0.86;96.49
75013;BME280;63567;49.956;20.130;2023-04-03T05:51:05;97486.63;;;-0.86;97.11
75013;BME280;63567;49.956;20.130;2023-04-03T05:53:33;97493.72;;;-0.76;96.67
75013;BME280;63567;49.956;20.130;2023-04-03T05:56:00;97490.09;;;-0.74;97.15
75013;BME280;63567;49.956;20.130;2023-04-03T05:58:25;97492.41;;;-0.69;95.96
75013;BME280;63567;49.956;20.130;2023-04-03T06:00:51;97496.94;;;-0.73;96.10
75013;BME280;63567;49.956;20.130;2023-04-03T06:03:16;97494.25;;;-0.71;96.41
75013;BME280;63567;49.956;20.130;2023-04-03T06:05:42;97499.31;;;-0.70;96.44
75013;BME280;63567;49.956;20.130;2023-04-03T06:08:08;97496.22;;;-0.75;96.35
75013;BME280;63567;49.956;20.130;2023-04-03T06:10:34;97510.91;;;-0.75;95.97
75013;BME280;63567;49.956;20.130;2023-04-03T06:13:00;97507.53;;;-0.89;95.72
75013;BME280;63567;49.956;20.130;2023-04-03T06:15:26;97509.50;;;-0.92;95.35
75013;BME280;63567;49.956;20.130;2023-04-03T06:17:51;97507.22;;;-0.97;95.74
75013;BME280;63567;49.956;20.130;2023-04-03T06:20:16;97507.72;;;-0.92;95.60
75013;BME280;63567;49.956;20.130;2023-04-03T06:22:42;97503.59;;;-0.94;95.74
75013;BME280;63567;49.956;20.130;2023-04-03T06:25:08;97514.56;;;-0.91;95.43
75013;BME280;63567;49.956;20.130;2023-04-03T06:27:34;97514.25;;;-0.86;95.38
75013;BME280;63567;49.956;20.130;2023-04-03T06:29:59;97513.28;;;-0.85;95.21
75013;BME280;63567;49.956;20.130;2023-04-03T06:32:25;97519.19;;;-0.83;95.41
75013;BME280;63567;49.956;20.130;2023-04-03T06:34:51;97525.31;;;-0.84;95.33
75013;BME280;63567;49.956;20.130;2023-04-03T06:37:20;97528.81;;;-0.85;95.04
75013;BME280;63567;49.956;20.130;2023-04-03T06:39:46;97528.31;;;-0.77;94.88
75013;BME280;63567;49.956;20.130;2023-04-03T06:42:12;97526.34;;;-0.87;94.52
75013;BME280;63567;49.956;20.130;2023-04-03T06:44:37;97541.88;;;-0.87;94.75
75013;BME280;63567;49.956;20.130;2023-04-03T06:47:03;97534.41;;;-0.91;94.75
75013;BME280;63567;49.956;20.130;2023-04-03T06:49:28;97537.94;;;-0.92;94.54
75013;BME280;63567;49.956;20.130;2023-04-03T06:51:54;97534.22;;;-1.01;94.13
75013;BME280;63567;49.956;20.130;2023-04-03T06:54:21;97532.97;;;-0.95;94.82
75013;BME280;63567;49.956;20.130;2023-04-03T06:56:46;97540.41;;;-0.91;94.61
75013;BME280;63567;49.956;20.130;2023-04-03T06:59:12;97538.44;;;-0.87;94.47
75013;BME280;63567;49.956;20.130;2023-04-03T07:01:39;97544.88;;;-0.93;93.79
75013;BME280;63567;49.956;20.130;2023-04-03T07:04:06;97540.19;;;-0.88;93.79
75013;BME280;63567;49.956;20.130;2023-04-03T07:06:31;97545.06;;;-0.83;94.06
75013;BME280;63567;49.956;20.130;2023-04-03T07:08:58;97550.63;;;-0.76;93.84
75013;BME280;63567;49.956;20.130;2023-04-03T07:11:24;97553.94;;;-0.74;93.34
75013;BME280;63567;49.956;20.130;2023-04-03T07:13:50;97552.00;;;-0.71;93.40
75013;BME280;63567;49.956;20.130;2023-04-03T07:16:15;97553.13;;;-0.62;92.46
75013;BME280;63567;49.956;20.130;2023-04-03T07:18:40;97560.88;;;-0.62;92.27
75013;BME280;63567;49.956;20.130;2023-04-03T07:21:06;97562.31;;;-0.58;91.27
75013;BME280;63567;49.956;20.130;2023-04-03T07:23:32;97562.22;;;-0.56;90.93
75013;BME280;63567;49.956;20.130;2023-04-03T07:25:58;97566.13;;;-0.51;90.19
75013;BME280;63567;49.956;20.130;2023-04-03T07:28:24;97579.78;;;-0.49;90.24
75013;BME280;63567;49.956;20.130;2023-04-03T07:33:25;97579.28;;;-0.41;88.69
75013;BME280;63567;49.956;20.130;2023-04-03T07:35:51;97585.69;;;-0.34;89.57
75013;BME280;63567;49.956;20.130;2023-04-03T07:38:17;97586.06;;;-0.27;88.78
75013;BME280;63567;49.956;20.130;2023-04-03T07:40:47;97584.94;;;-0.23;89.35
75013;BME280;63567;49.956;20.130;2023-04-03T07:43:14;97588.25;;;-0.21;88.00
75013;BME280;63567;49.956;20.130;2023-04-03T07:45:40;97592.91;;;-0.26;87.24
75013;BME280;63567;49.956;20.130;2023-04-03T07:48:05;97588.16;;;-0.32;86.88
75013;BME280;63567;49.956;20.130;2023-04-03T07:50:31;97603.06;;;-0.23;88.02
75013;BME280;63567;49.956;20.130;2023-04-03T07:52:57;97598.69;;;-0.23;87.55
75013;BME280;63567;49.956;20.130;2023-04-03T07:55:23;97600.75;;;-0.15;87.70
75013;BME280;63567;49.956;20.130;2023-04-03T07:57:49;97601.34;;;-0.11;86.76
75013;BME280;63567;49.956;20.130;2023-04-03T08:00:15;97600.63;;;-0.13;86.64
75013;BME280;63567;49.956;20.130;2023-04-03T08:02:42;97607.19;;;-0.21;86.95
75013;BME280;63567;49.956;20.130;2023-04-03T08:05:09;97606.53;;;-0.11;86.79
75013;BME280;63567;49.956;20.130;2023-04-03T08:07:36;97602.41;;;-0.14;85.69
75013;BME280;63567;49.956;20.130;2023-04-03T08:10:02;97603.94;;;-0.11;86.83
75013;BME280;63567;49.956;20.130;2023-04-03T08:12:27;97609.44;;;-0.16;86.02
75013;BME280;63567;49.956;20.130;2023-04-03T08:14:55;97606.56;;;-0.24;86.08
75013;BME280;63567;49.956;20.130;2023-04-03T08:17:20;97602.72;;;-0.18;85.58
75013;BME280;63567;49.956;20.130;2023-04-03T08:19:46;97614.72;;;-0.17;85.30
75013;BME280;63567;49.956;20.130;2023-04-03T08:22:12;97612.13;;;-0.17;84.56
75013;BME280;63567;49.956;20.130;2023-04-03T08:24:37;97613.81;;;-0.29;84.49
75013;BME280;63567;49.956;20.130;2023-04-03T08:27:02;97616.19;;;-0.26;84.77
75013;BME280;63567;49.956;20.130;2023-04-03T08:29:28;97616.31;;;-0.28;84.16
75013;BME280;63567;49.956;20.130;2023-04-03T08:31:53;97625.22;;;-0.19;84.53
75013;BME280;63567;49.956;20.130;2023-04-03T08:34:19;97618.25;;;-0.06;85.30
75013;BME280;63567;49.956;20.130;2023-04-03T08:36:45;97622.91;;;-0.11;84.82
75013;BME280;63567;49.956;20.130;2023-04-03T08:39:10;97624.84;;;-0.02;85.54
75013;BME280;63567;49.956;20.130;2023-04-03T08:41:45;97627.34;;;0.00;85.26
75013;BME280;63567;49.956;20.130;2023-04-03T08:52:04;97634.59;;;-0.05;85.74
75013;BME280;63567;49.956;20.130;2023-04-03T08:54:34;97633.38;;;-0.12;85.99
75013;BME280;63567;49.956;20.130;2023-04-03T08:57:03;97642.91;;;-0.13;85.90
75013;BME280;63567;49.956;20.130;2023-04-03T08:59:33;97647.53;;;-0.05;85.07
75013;BME280;63567;49.956;20.130;2023-04-03T09:02:01;97644.06;;;-0.17;85.16
75013;BME280;63567;49.956;20.130;2023-04-03T09:04:31;97648.28;;;-0.29;86.32
75013;BME280;63567;49.956;20.130;2023-04-03T09:07:04;97643.84;;;-0.27;86.67
75013;BME280;63567;49.956;20.130;2023-04-03T09:09:39;97655.00;;;-0.26;87.02
75013;BME280;63567;49.956;20.130;2023-04-03T09:12:25;97650.47;;;-0.35;86.92
75013;BME280;63567;49.956;20.130;2023-04-03T09:22:39;97661.06;;;-0.38;88.85
75013;BME280;63567;49.956;20.130;2023-04-03T09:25:20;97663.09;;;-0.44;88.40
75013;BME280;63567;49.956;20.130;2023-04-03T09:27:46;97671.81;;;-0.57;88.99
75013;BME280;63567;49.956;20.130;2023-04-03T09:30:22;97669.84;;;-0.54;89.37
75013;BME280;63567;49.956;20.130;2023-04-03T09:32:52;97674.41;;;-0.57;89.43
75013;BME280;63567;49.956;20.130;2023-04-03T09:35:26;97677.69;;;-0.68;89.73
75013;BME280;63567;49.956;20.130;2023-04-03T09:37:58;97681.75;;;-0.64;90.17
75013;BME280;63567;49.956;20.130;2023-04-03T09:42:51;97684.22;;;-0.63;90.03
75013;BME280;63567;49.956;20.130;2023-04-03T09:45:25;97687.66;;;-0.49;90.27
75013;BME280;63567;49.956;20.130;2023-04-03T09:55:58;97690.34;;;-0.51;89.73
75013;BME280;63567;49.956;20.130;2023-04-03T09:58:38;97694.97;;;-0.69;90.57
75013;BME280;63567;49.956;20.130;2023-04-03T10:01:06;97703.44;;;-0.79;92.68
75013;BME280;63567;49.956;20.130;2023-04-03T10:03:45;97702.69;;;-0.94;92.10
75013;BME280;63567;49.956;20.130;2023-04-03T10:06:23;97710.88;;;-0.88;91.86
75013;BME280;63567;49.956;20.130;2023-04-03T10:09:20;97711.50;;;-0.84;92.61
75013;BME280;63567;49.956;20.130;2023-04-03T10:12:07;97714.13;;;-0.71;92.10
75013;BME280;63567;49.956;20.130;2023-04-03T10:14:38;97710.94;;;-0.62;91.51
75013;BME280;63567;49.956;20.130;2023-04-03T10:17:18;97713.63;;;-0.51;91.47
75013;BME280;63567;49.956;20.130;2023-04-03T10:19:54;97712.91;;;-0.53;90.67
75013;BME280;63567;49.956;20.130;2023-04-03T10:25:28;97720.31;;;-0.61;91.26
75013;BME280;63567;49.956;20.130;2023-04-03T10:36:16;97723.25;;;-0.53;90.65
75013;BME280;63567;49.956;20.130;2023-04-03T10:38:54;97719.75;;;-0.52;90.25
75013;BME280;63567;49.956;20.130;2023-04-03T10:46:43;97719.13;;;-0.43;90.30
75013;BME280;63567;49.956;20.130;2023-04-03T10:52:17;97719.31;;;-0.33;89.90
75013;BME280;63567;49.956;20.130;2023-04-03T10:57:19;97726.16;;;-0.45;89.08
75013;BME280;63567;49.956;20.130;2023-04-03T10:59:50;97723.03;;;-0.37;89.05
75013;BME280;63567;49.956;20.130;2023-04-03T11:02:23;97725.84;;;-0.27;88.52
75013;BME280;63567;49.956;20.130;2023-04-03T11:04:53;97725.94;;;-0.16;88.80
75013;BME280;63567;49.956;20.130;2023-04-03T11:07:32;97728.53;;;-0.16;87.92
75013;BME280;63567;49.956;20.130;2023-04-03T11:10:44;97736.22;;;-0.14;88.27
75013;BME280;63567;49.956;20.130;2023-04-03T11:13:28;97722.75;;;-0.19;88.47
75013;BME280;63567;49.956;20.130;2023-04-03T11:15:57;97723.06;;;-0.11;88.47
75013;BME280;63567;49.956;20.130;2023-04-03T11:18:32;97732.69;;;-0.01;88.28
75013;BME280;63567;49.956;20.130;2023-04-03T11:21:23;97734.66;;;0.09;86.48
75013;BME280;63567;49.956;20.130;2023-04-03T11:23:51;97722.94;;;0.03;86.35
75013;BME280;63567;49.956;20.130;2023-04-03T11:26:26;97724.66;;;0.28;86.76
75013;BME280;63567;49.956;20.130;2023-04-03T11:28:58;97717.50;;;0.32;84.73
75013;BME280;63567;49.956;20.130;2023-04-03T11:34:31;97721.84;;;0.44;83.92
75013;BME280;63567;49.956;20.130;2023-04-03T11:37:00;97721.41;;;0.50;84.52
75013;BME280;63567;49.956;20.130;2023-04-03T11:39:31;97718.31;;;0.45;84.05
75013;BME280;63567;49.956;20.130;2023-04-03T11:44:41;97712.13;;;0.35;82.69
75013;BME280;63567;49.956;20.130;2023-04-03T11:47:10;97707.06;;;0.57;82.91
75013;BME280;63567;49.956;20.130;2023-04-03T11:50:30;97706.41;;;0.91;81.44
75013;BME280;63567;49.956;20.130;2023-04-03T11:53:00;97704.47;;;1.06;80.00
75013;BME280;63567;49.956;20.130;2023-04-03T12:08:26;97707.47;;;1.48;77.12
75013;BME280;63567;49.956;20.130;2023-04-03T12:45:20;97707.59;;;2.59;76.55
75013;BME280;63567;49.956;20.130;2023-04-03T12:47:49;97726.63;;;2.59;71.38
75013;BME280;63567;49.956;20.130;2023-04-03T12:50:28;97719.63;;;2.71;74.56
75013;BME280;63567;49.956;20.130;2023-04-03T12:53:05;97713.34;;;2.74;73.60
75013;BME280;63567;49.956;20.130;2023-04-03T12:55:31;97719.34;;;3.18;75.36
75013;BME280;63567;49.956;20.130;2023-04-03T12:57:57;97715.94;;;3.17;68.74
75013;BME280;63567;49.956;20.130;2023-04-03T13:02:48;97718.97;;;2.90;71.38
75013;BME280;63567;49.956;20.130;2023-04-03T13:05:18;97719.97;;;3.10;72.51
75013;BME280;63567;49.956;20.130;2023-04-03T13:07:48;97720.06;;;3.20;71.75
75013;BME280;63567;49.956;20.130;2023-04-03T13:10:16;97721.53;;;3.13;70.88
75013;BME280;63567;49.956;20.130;2023-04-03T13:15:16;97724.00;;;2.71;69.12
75013;BME280;63567;49.956;20.130;2023-04-03T13:17:43;97729.34;;;2.58;68.44
75013;BME280;63567;49.956;20.130;2023-04-03T13:20:34;97715.59;;;2.78;71.62
75013;BME280;63567;49.956;20.130;2023-04-03T13:25:27;97702.25;;;3.36;69.11
75013;BME280;63567;49.956;20.130;2023-04-03T13:27:55;97699.31;;;3.50;68.21
75013;BME280;63567;49.956;20.130;2023-04-03T13:30:33;97701.22;;;3.69;69.03
75013;BME280;63567;49.956;20.130;2023-04-03T13:33:01;97704.91;;;3.67;64.74
75013;BME280;63567;49.956;20.130;2023-04-03T13:35:35;97697.66;;;3.28;64.32
75013;BME280;63567;49.956;20.130;2023-04-03T13:40:52;97709.78;;;3.39;65.48
75013;BME280;63567;49.956;20.130;2023-04-03T13:43:26;97712.44;;;3.49;66.93
75013;BME280;63567;49.956;20.130;2023-04-03T13:46:03;97712.84;;;3.44;68.56
75013;BME280;63567;49.956;20.130;2023-04-03T13:48:45;97712.31;;;3.29;65.23
75013;BME280;63567;49.956;20.130;2023-04-03T13:54:12;97718.06;;;2.80;67.85
75013;BME280;63567;49.956;20.130;2023-04-03T13:56:35;97719.00;;;2.79;67.69
75013;BME280;63567;49.956;20.130;2023-04-03T14:04:20;97711.66;;;3.16;66.97
75013;BME280;63567;49.956;20.130;2023-04-03T14:06:47;97704.34;;;3.10;66.26
75013;BME280;63567;49.956;20.130;2023-04-03T14:09:13;97714.25;;;3.16;66.10
75013;BME280;63567;49.956;20.130;2023-04-03T14:11:39;97709.53;;;3.21;68.74
75013;BME280;63567;49.956;20.130;2023-04-03T14:14:35;97715.28;;;3.04;67.78
75013;BME280;63567;49.956;20.130;2023-04-03T14:17:13;97715.25;;;2.72;65.55
75013;BME280;63567;49.956;20.130;2023-04-03T14:19:38;97712.66;;;2.72;67.64
75013;BME280;63567;49.956;20.130;2023-04-03T14:22:17;97713.22;;;2.75;66.33
75013;BME280;63567;49.956;20.130;2023-04-03T14:24:44;97703.28;;;2.80;67.39
75013;BME280;63567;49.956;20.130;2023-04-03T14:29:43;97706.44;;;2.84;67.95
75013;BME280;63567;49.956;20.130;2023-04-03T14:32:12;97695.22;;;2.83;68.68
75013;BME280;63567;49.956;20.130;2023-04-03T14:34:38;97700.53;;;2.93;69.86
75013;BME280;63567;49.956;20.130;2023-04-03T14:37:05;97704.31;;;2.89;68.83
75013;BME280;63567;49.956;20.130;2023-04-03T14:39:30;97692.84;;;2.92;68.48
75013;BME280;63567;49.956;20.130;2023-04-03T14:41:56;97694.63;;;2.91;69.63
75013;BME280;63567;49.956;20.130;2023-04-03T14:44:21;97698.34;;;2.66;67.90
75013;BME280;63567;49.956;20.130;2023-04-03T14:46:48;97704.41;;;2.55;70.01
75013;BME280;63567;49.956;20.130;2023-04-03T14:49:19;97705.59;;;2.40;69.17
75013;BME280;63567;49.956;20.130;2023-04-03T14:51:45;97702.78;;;2.09;69.14
75013;BME280;63567;49.956;20.130;2023-04-03T14:54:17;97704.44;;;1.99;68.60
75013;BME280;63567;49.956;20.130;2023-04-03T14:56:44;97703.38;;;1.79;68.53
75013;BME280;63567;49.956;20.130;2023-04-03T14:59:12;97708.22;;;1.72;69.80
75013;BME280;63567;49.956;20.130;2023-04-03T15:01:39;97703.47;;;1.66;67.28
75013;BME280;63567;49.956;20.130;2023-04-03T15:04:13;97707.03;;;1.65;68.32
75013;BME280;63567;49.956;20.130;2023-04-03T15:06:39;97707.13;;;1.63;70.26
75013;BME280;63567;49.956;20.130;2023-04-03T15:09:04;97701.94;;;1.63;71.37
75013;BME280;63567;49.956;20.130;2023-04-03T15:11:30;97708.19;;;1.50;69.76